createdAt,value
2023-01-17T00:02:19.432Z,0.70
2023-01-17T00:05:04.339Z,0.62
2023-01-17T00:07:48.756Z,0.79
2023-01-17T00:10:20.317Z,0.66
2023-01-17T00:12:48.323Z,0.68
2023-01-17T00:15:15.912Z,0.69
2023-01-17T00:17:41.752Z,0.72
2023-01-17T00:20:30.628Z,0.68
2023-01-17T00:23:15.143Z,0.56
2023-01-17T00:25:59.635Z,0.60
2023-01-17T00:28:26.503Z,0.54
2023-01-17T00:30:52.793Z,0.54
2023-01-17T00:33:20.092Z,0.60
2023-01-17T00:35:46.093Z,0.62
2023-01-17T00:38:15.253Z,0.59
2023-01-17T00:40:42.888Z,0.58
2023-01-17T00:43:28.510Z,0.73
2023-01-17T00:46:13.412Z,0.68
2023-01-17T00:48:58.644Z,0.50
2023-01-17T00:51:44.137Z,0.52
2023-01-17T00:54:29.245Z,0.43
2023-01-17T00:57:14.126Z,0.39
2023-01-17T00:59:58.646Z,0.34
2023-01-17T01:02:43.817Z,0.31
2023-01-17T01:05:30.171Z,0.35
2023-01-17T01:08:15.048Z,0.38
2023-01-17T01:11:00.962Z,0.50
2023-01-17T01:13:47.131Z,0.22
2023-01-17T01:16:31.940Z,0.15
2023-01-17T01:19:17.186Z,0.09
2023-01-17T01:22:01.641Z,0.21
2023-01-17T01:24:46.627Z,0.09
2023-01-17T01:27:31.038Z,0.07
2023-01-17T01:30:15.861Z,0.13
2023-01-17T01:33:00.472Z,0.21
2023-01-17T01:35:26.798Z,0.14
2023-01-17T01:37:52.662Z,0.16
2023-01-17T01:40:18.980Z,0.14
2023-01-17T01:42:53.207Z,0.15
2023-01-17T01:45:30.701Z,0.21
2023-01-17T01:48:04.179Z,0.06
2023-01-17T01:50:35.492Z,0.13
2023-01-17T01:53:03.911Z,0.23
2023-01-17T01:55:37.244Z,0.15
2023-01-17T01:58:24.597Z,0.03
2023-01-17T02:00:50.836Z,0.01
2023-01-17T02:03:29.832Z,0.06
2023-01-17T02:06:01.697Z,-0.01
2023-01-17T02:08:27.740Z,-0.02
2023-01-17T02:10:55.301Z,0.11
2023-01-17T02:13:21.315Z,0.09
2023-01-17T02:16:25.054Z,0.14
2023-01-17T02:19:22.152Z,0.06
2023-01-17T02:22:02.344Z,0.12
2023-01-17T02:25:10.477Z,0.17
2023-01-17T02:28:13.568Z,-0.01
2023-01-17T02:30:45.372Z,-0.01
2023-01-17T02:34:02.208Z,0.03
2023-01-17T02:36:55.541Z,0.05
2023-01-17T02:39:28.153Z,-0.04
2023-01-17T02:42:01.164Z,0.10
2023-01-17T02:44:26.957Z,0.04
2023-01-17T02:46:56.266Z,-0.23
2023-01-17T02:49:27.806Z,-0.13
2023-01-17T02:52:47.862Z,-0.13
2023-01-17T02:55:41.621Z,-0.01
2023-01-17T02:58:40.245Z,-0.03
2023-01-17T03:01:29.498Z,0.09
2023-01-17T03:04:32.474Z,0.06
2023-01-17T03:07:03.025Z,-0.19
2023-01-17T03:09:31.092Z,0.03
2023-01-17T03:11:58.686Z,0.12
2023-01-17T03:14:25.411Z,0.15
2023-01-17T03:16:52.281Z,-0.08
2023-01-17T03:19:18.146Z,-0.04
2023-01-17T03:21:44.035Z,-0.15
2023-01-17T03:24:09.801Z,-0.38
2023-01-17T03:26:35.661Z,-0.18
2023-01-17T03:29:01.599Z,-0.13
2023-01-17T03:31:27.403Z,-0.17
2023-01-17T03:33:53.250Z,-0.10
2023-01-17T03:36:19.597Z,-0.22
2023-01-17T03:38:45.621Z,-0.15
2023-01-17T03:41:11.607Z,-0.10
2023-01-17T03:43:38.008Z,-0.20
2023-01-17T03:46:06.020Z,-0.18
2023-01-17T03:48:32.422Z,-0.14
2023-01-17T03:50:58.624Z,-0.17
2023-01-17T03:53:24.796Z,-0.28
2023-01-17T03:55:50.786Z,-0.15
2023-01-17T03:58:16.638Z,-0.23
2023-01-17T04:00:42.540Z,-0.31
2023-01-17T04:03:08.623Z,-0.36
2023-01-17T04:05:34.617Z,-0.29
2023-01-17T04:08:00.413Z,-0.38
2023-01-17T04:10:26.335Z,-0.33
2023-01-17T04:12:52.278Z,-0.28
2023-01-17T04:15:18.152Z,-0.20
2023-01-17T04:17:43.943Z,-0.25
2023-01-17T04:20:32.280Z,-0.17
2023-01-17T04:22:58.512Z,-0.06
2023-01-17T04:25:25.109Z,-0.28
2023-01-17T04:27:51.980Z,-0.16
2023-01-17T04:30:17.861Z,-0.25
2023-01-17T04:32:43.656Z,-0.21
2023-01-17T04:35:09.546Z,-0.39
2023-01-17T04:37:35.735Z,-0.41
2023-01-17T04:40:02.706Z,-0.53
2023-01-17T04:42:28.602Z,-0.61
2023-01-17T04:44:54.412Z,-0.44
2023-01-17T04:47:20.275Z,-0.37
2023-01-17T04:49:49.263Z,-0.45
2023-01-17T04:52:17.937Z,-0.39
2023-01-17T04:54:44.128Z,-0.41
2023-01-17T04:57:10.123Z,-0.43
2023-01-17T04:59:35.929Z,-0.38
2023-01-17T05:02:01.947Z,-0.32
2023-01-17T05:04:27.741Z,-0.23
2023-01-17T05:06:54.296Z,-0.42
2023-01-17T05:09:20.128Z,-0.41
2023-01-17T05:11:46.018Z,-0.22
2023-01-17T05:14:11.812Z,-0.41
2023-01-17T05:16:37.665Z,-0.40
2023-01-17T05:19:03.483Z,-0.18
2023-01-17T05:21:30.749Z,-0.19
2023-01-17T05:23:56.656Z,-0.40
2023-01-17T05:26:22.681Z,-0.20
2023-01-17T05:28:49.282Z,-0.20
2023-01-17T05:31:15.125Z,-0.28
2023-01-17T05:33:41.054Z,-0.20
2023-01-17T05:36:07.709Z,-0.22
2023-01-17T05:38:33.567Z,-0.14
2023-01-17T05:41:00.581Z,-0.17
2023-01-17T05:43:27.714Z,-0.11
2023-01-17T05:45:54.081Z,-0.12
2023-01-17T05:48:20.477Z,-0.12
2023-01-17T05:50:46.672Z,-0.03
2023-01-17T05:53:15.188Z,-0.05
2023-01-17T05:55:42.254Z,-0.14
2023-01-17T05:58:13.910Z,-0.35
2023-01-17T06:00:39.820Z,-0.18
2023-01-17T06:03:05.928Z,-0.24
2023-01-17T06:05:31.810Z,-0.17
2023-01-17T06:07:57.786Z,-0.23
2023-01-17T06:10:24.837Z,-0.10
2023-01-17T06:13:00.859Z,-0.31
2023-01-17T06:15:26.919Z,-0.36
2023-01-17T06:17:52.813Z,-0.26
2023-01-17T06:20:18.792Z,-0.23
2023-01-17T06:22:44.622Z,-0.19
2023-01-17T06:25:10.501Z,-0.15
2023-01-17T06:27:36.282Z,-0.14
2023-01-17T06:30:02.227Z,-0.25
2023-01-17T06:32:28.102Z,-0.17
2023-01-17T06:34:56.768Z,-0.20
2023-01-17T06:37:22.707Z,-0.41
2023-01-17T06:39:48.512Z,-0.20
2023-01-17T06:42:14.513Z,-0.20
2023-01-17T06:44:40.349Z,-0.18
2023-01-17T06:47:06.708Z,-0.36
2023-01-17T06:49:32.524Z,-0.34
2023-01-17T06:51:58.338Z,-0.25
2023-01-17T06:54:24.292Z,-0.45
2023-01-17T06:56:50.191Z,-0.38
2023-01-17T06:59:16.011Z,-0.41
2023-01-17T07:01:41.932Z,-0.41
2023-01-17T07:04:07.926Z,-0.40
2023-01-17T07:06:35.711Z,-0.30
2023-01-17T07:09:03.365Z,-0.36
2023-01-17T07:11:30.102Z,-0.57
2023-01-17T07:13:55.955Z,-0.45
2023-01-17T07:16:21.839Z,-0.43
2023-01-17T07:18:47.881Z,-0.54
2023-01-17T07:21:14.751Z,-0.53
2023-01-17T07:23:41.210Z,-0.49
2023-01-17T07:26:07.313Z,-0.37
2023-01-17T07:28:33.389Z,-0.45
2023-01-17T07:31:09.917Z,-0.39
2023-01-17T07:33:35.815Z,-0.40
2023-01-17T07:36:06.669Z,-0.65
2023-01-17T07:38:32.620Z,-0.46
2023-01-17T07:40:59.580Z,-0.53
2023-01-17T07:43:25.558Z,-0.58
2023-01-17T07:45:51.543Z,-0.57
2023-01-17T07:48:19.545Z,-0.48
2023-01-17T07:50:54.596Z,-0.43
2023-01-17T07:53:24.987Z,-0.36
2023-01-17T07:55:51.190Z,-0.39
2023-01-17T07:58:17.154Z,-0.32
2023-01-17T08:00:44.127Z,-0.17
2023-01-17T08:03:15.208Z,-0.16
2023-01-17T08:05:42.749Z,-0.15
2023-01-17T08:08:08.948Z,-0.07
2023-01-17T08:10:35.234Z,-0.16
2023-01-17T08:13:01.059Z,-0.20
2023-01-17T08:15:27.055Z,-0.04
2023-01-17T08:17:52.871Z,0.05
2023-01-17T08:20:20.193Z,0.04
2023-01-17T08:22:46.214Z,-0.01
2023-01-17T08:25:12.431Z,-0.30
2023-01-17T08:27:38.354Z,-0.24
2023-01-17T08:30:05.939Z,-0.45
2023-01-17T08:32:32.678Z,-0.41
2023-01-17T08:34:58.481Z,-0.33
2023-01-17T08:37:24.345Z,-0.34
2023-01-17T08:39:50.275Z,-0.38
2023-01-17T08:42:17.003Z,-0.33
2023-01-17T08:44:43.423Z,-0.37
2023-01-17T08:47:09.689Z,-0.47
2023-01-17T08:49:35.478Z,-0.17
2023-01-17T08:52:01.404Z,-0.19
2023-01-17T08:54:28.114Z,-0.09
2023-01-17T08:56:54.907Z,0.13
2023-01-17T08:59:21.211Z,0.26
2023-01-17T09:01:47.287Z,0.28
2023-01-17T09:04:13.952Z,0.39
2023-01-17T09:06:42.379Z,0.62
2023-01-17T09:09:10.587Z,0.88
2023-01-17T09:11:36.935Z,0.95
2023-01-17T09:14:03.013Z,1.05
2023-01-17T09:16:29.304Z,0.99
2023-01-17T09:18:56.499Z,1.16
2023-01-17T09:21:23.380Z,1.17
2023-01-17T09:23:49.337Z,0.81
2023-01-17T09:26:24.269Z,0.76
2023-01-17T09:28:51.092Z,0.74
2023-01-17T09:31:20.019Z,0.64
2023-01-17T09:33:47.732Z,0.59
2023-01-17T09:36:13.682Z,0.57
2023-01-17T09:38:39.588Z,0.47
2023-01-17T09:41:23.432Z,0.39
2023-01-17T09:44:04.353Z,0.38
2023-01-17T09:46:33.303Z,0.54
2023-01-17T09:49:23.226Z,0.41
2023-01-17T09:51:49.123Z,0.52
2023-01-17T09:54:22.431Z,0.83
2023-01-17T09:57:00.005Z,0.90
2023-01-17T10:00:02.582Z,1.05
2023-01-17T10:02:59.605Z,1.43
2023-01-17T10:05:55.800Z,1.82
2023-01-17T10:08:50.441Z,3.08
2023-01-17T10:11:35.256Z,6.64
2023-01-17T10:14:38.840Z,10.15
2023-01-17T10:17:26.656Z,9.67
2023-01-17T10:20:15.172Z,7.58
2023-01-17T10:22:57.589Z,6.73
2023-01-17T10:25:48.404Z,5.86
2023-01-17T10:28:17.902Z,5.20
2023-01-17T10:30:48.568Z,3.49
2023-01-17T10:33:19.196Z,3.73
2023-01-17T10:35:54.090Z,4.02
2023-01-17T10:38:24.776Z,3.65
2023-01-17T10:40:56.623Z,3.16
2023-01-17T10:43:32.976Z,3.51
2023-01-17T10:45:58.905Z,3.30
2023-01-17T10:48:28.704Z,3.60
2023-01-17T10:51:23.941Z,4.91
2023-01-17T10:54:22.133Z,6.98
2023-01-17T10:56:48.065Z,8.54
2023-01-17T10:59:22.398Z,11.78
2023-01-17T11:01:50.371Z,9.62
2023-01-17T11:04:26.333Z,8.91
2023-01-17T11:07:15.672Z,8.00
2023-01-17T11:09:50.628Z,5.95
2023-01-17T11:12:39.384Z,4.35
2023-01-17T11:15:08.154Z,3.11
2023-01-17T11:17:48.094Z,2.50
2023-01-17T11:20:16.415Z,2.03
2023-01-17T11:23:08.103Z,1.68
2023-01-17T11:25:34.634Z,1.32
2023-01-17T11:28:17.336Z,1.13
2023-01-17T11:30:54.880Z,1.17
2023-01-17T11:33:44.966Z,1.44
2023-01-17T11:36:20.823Z,1.82
2023-01-17T11:38:56.644Z,1.92
2023-01-17T11:41:24.534Z,1.86
2023-01-17T11:43:53.398Z,2.57
2023-01-17T11:46:23.193Z,5.44
2023-01-17T11:48:56.308Z,9.81
2023-01-17T11:51:22.425Z,13.43
2023-01-17T11:53:48.783Z,15.13
2023-01-17T11:56:32.591Z,15.31
2023-01-17T11:59:23.112Z,14.40
2023-01-17T12:02:10.248Z,11.53
2023-01-17T12:04:47.116Z,10.30
2023-01-17T12:07:22.053Z,8.87
2023-01-17T12:10:03.370Z,7.79
2023-01-17T12:12:51.119Z,6.21
2023-01-17T12:15:19.628Z,5.38
2023-01-17T12:18:08.360Z,5.78
2023-01-17T12:20:53.725Z,7.58
2023-01-17T12:23:45.370Z,7.49
2023-01-17T12:26:23.160Z,10.13
2023-01-17T12:29:13.837Z,13.86
2023-01-17T12:31:59.881Z,11.82
2023-01-17T12:34:32.628Z,10.41
2023-01-17T12:37:21.308Z,11.79
2023-01-17T12:40:25.503Z,13.87
2023-01-17T12:43:02.429Z,14.51
2023-01-17T12:45:37.665Z,15.43
2023-01-17T12:48:09.403Z,13.25
2023-01-17T12:50:51.710Z,13.06
2023-01-17T12:53:58.149Z,9.84
2023-01-17T12:56:27.381Z,8.47
2023-01-17T12:59:45.539Z,5.95
2023-01-17T13:02:15.112Z,5.14
2023-01-17T13:05:04.803Z,5.65
2023-01-17T13:07:49.768Z,5.29
2023-01-17T13:10:47.916Z,5.64
2023-01-17T13:13:21.704Z,6.27
2023-01-17T13:15:51.723Z,5.83
2023-01-17T13:18:22.470Z,5.35
2023-01-17T13:21:05.346Z,5.12
2023-01-17T13:23:49.110Z,5.21
2023-01-17T13:26:40.794Z,5.76
2023-01-17T13:29:28.619Z,4.46
2023-01-17T13:32:13.176Z,3.79
2023-01-17T13:34:58.769Z,2.88
2023-01-17T13:37:44.486Z,2.52
2023-01-17T13:40:39.735Z,2.32
2023-01-17T13:43:13.605Z,1.74
2023-01-17T13:45:39.685Z,1.53
2023-01-17T13:48:11.572Z,1.65
2023-01-17T13:50:40.211Z,1.60
2023-01-17T13:53:28.036Z,1.72
2023-01-17T13:56:08.846Z,1.75
2023-01-17T13:58:51.006Z,1.70
2023-01-17T14:01:22.853Z,1.65
2023-01-17T14:04:02.766Z,1.36
2023-01-17T14:06:37.828Z,1.40
2023-01-17T14:09:12.629Z,1.38
2023-01-17T14:11:52.601Z,1.14
2023-01-17T14:14:39.847Z,0.99
2023-01-17T14:17:27.409Z,1.01
2023-01-17T14:20:05.439Z,0.90
2023-01-17T14:22:35.806Z,0.85
2023-01-17T14:25:18.927Z,1.03
2023-01-17T14:27:54.105Z,0.99
2023-01-17T14:30:25.103Z,1.13
2023-01-17T14:33:07.965Z,0.89
2023-01-17T14:35:37.051Z,0.71
2023-01-17T14:38:14.457Z,0.91
2023-01-17T14:40:49.104Z,1.10
2023-01-17T14:43:19.984Z,1.17
2023-01-17T14:45:46.579Z,1.14
2023-01-17T14:48:18.139Z,1.14
2023-01-17T14:50:45.552Z,1.14
2023-01-17T14:53:11.871Z,0.85
2023-01-17T14:55:46.528Z,0.73
2023-01-17T14:58:19.761Z,0.66
2023-01-17T15:00:49.038Z,0.77
2023-01-17T15:03:15.735Z,0.71
2023-01-17T15:05:45.175Z,0.45
2023-01-17T15:08:13.649Z,0.55
2023-01-17T15:10:57.887Z,0.40
2023-01-17T15:13:44.411Z,0.39
2023-01-17T15:16:19.696Z,0.52
2023-01-17T15:18:45.664Z,0.61
2023-01-17T15:21:16.465Z,0.36
2023-01-17T15:23:55.637Z,0.46
2023-01-17T15:26:28.265Z,0.45
2023-01-17T15:29:02.246Z,0.42
2023-01-17T15:31:48.848Z,0.29
2023-01-17T15:34:35.199Z,0.32
2023-01-17T15:37:04.040Z,0.39
2023-01-17T15:39:33.306Z,0.15
2023-01-17T15:42:03.570Z,0.03
2023-01-17T15:44:49.484Z,0.04
2023-01-17T15:47:30.571Z,0.01
2023-01-17T15:49:57.276Z,0.02
2023-01-17T15:52:23.298Z,-0.22
2023-01-17T15:54:58.195Z,-0.17
2023-01-17T15:57:31.731Z,-0.28
2023-01-17T16:00:08.071Z,-0.37
2023-01-17T16:02:42.506Z,-0.35
2023-01-17T16:05:24.262Z,-0.28
2023-01-17T16:07:54.536Z,-0.25
2023-01-17T16:10:30.900Z,-0.30
2023-01-17T16:12:58.436Z,-0.31
2023-01-17T16:15:28.307Z,-0.29
2023-01-17T16:18:00.420Z,-0.33
2023-01-17T16:20:43.592Z,-0.44
2023-01-17T16:23:10.005Z,-0.45
2023-01-17T16:25:36.053Z,-0.50
2023-01-17T16:28:02.905Z,-0.50
2023-01-17T16:30:29.176Z,-0.54
2023-01-17T16:32:56.214Z,-0.39
2023-01-17T16:35:24.492Z,-0.50
2023-01-17T16:37:52.524Z,-0.47
2023-01-17T16:40:20.873Z,-0.57
2023-01-17T16:42:47.055Z,-0.48
2023-01-17T16:45:14.189Z,-0.52
2023-01-17T16:47:41.273Z,-0.58
2023-01-17T16:50:09.936Z,-0.59
2023-01-17T16:52:36.030Z,-0.52
2023-01-17T16:55:03.644Z,-0.62
2023-01-17T16:57:29.510Z,-0.61
2023-01-17T16:59:55.385Z,-0.57
2023-01-17T17:02:22.343Z,-0.62
2023-01-17T17:04:48.276Z,-0.71
2023-01-17T17:07:14.699Z,-0.75
2023-01-17T17:09:40.649Z,-0.78
2023-01-17T17:12:06.752Z,-0.70
2023-01-17T17:14:32.789Z,-0.75
2023-01-17T17:17:01.490Z,-0.81
2023-01-17T17:19:30.241Z,-0.87
2023-01-17T17:21:59.932Z,-0.85
2023-01-17T17:24:25.899Z,-0.88
2023-01-17T17:26:51.789Z,-0.85
2023-01-17T17:29:18.031Z,-1.01
2023-01-17T17:31:44.089Z,-0.95
2023-01-17T17:34:12.431Z,-0.84
2023-01-17T17:36:38.532Z,-0.87
2023-01-17T17:39:08.440Z,-1.01
2023-01-17T17:41:38.582Z,-1.21
2023-01-17T17:44:05.223Z,-1.20
2023-01-17T17:46:33.135Z,-1.12
2023-01-17T17:49:00.601Z,-1.13
2023-01-17T17:51:29.933Z,-1.14
2023-01-17T17:54:00.152Z,-1.06
2023-01-17T17:56:27.798Z,-1.08
2023-01-17T17:58:53.948Z,-1.08
2023-01-17T18:01:23.480Z,-1.17
2023-01-17T18:03:54.528Z,-1.13
2023-01-17T18:06:20.920Z,-1.21
2023-01-17T18:08:47.230Z,-1.26
2023-01-17T18:11:17.763Z,-1.44
2023-01-17T18:13:51.775Z,-1.41
2023-01-17T18:16:34.822Z,-1.30
2023-01-17T18:19:05.043Z,-1.22
2023-01-17T18:21:33.496Z,-1.25
2023-01-17T18:24:02.940Z,-1.31
2023-01-17T18:26:35.242Z,-1.28
2023-01-17T18:29:02.442Z,-1.25
2023-01-17T18:31:29.579Z,-1.26
2023-01-17T18:33:57.756Z,-1.16
2023-01-17T18:36:25.175Z,-1.12
2023-01-17T18:38:51.659Z,-1.31
2023-01-17T18:41:20.639Z,-1.16
2023-01-17T18:43:47.349Z,-1.35
2023-01-17T18:46:15.019Z,-1.35
2023-01-17T18:48:41.364Z,-1.36
2023-01-17T18:51:12.624Z,-1.70
2023-01-17T18:53:39.597Z,-1.56
2023-01-17T18:56:12.283Z,-1.55
2023-01-17T18:58:41.403Z,-1.58
2023-01-17T19:01:19.388Z,-1.59
2023-01-17T19:03:46.937Z,-1.52
2023-01-17T19:06:16.845Z,-1.50
2023-01-17T19:08:43.266Z,-1.39
2023-01-17T19:11:09.589Z,-1.39
2023-01-17T19:13:37.450Z,-1.48
2023-01-17T19:16:06.925Z,-1.54
2023-01-17T19:18:34.001Z,-1.60
2023-01-17T19:21:11.476Z,-1.50
2023-01-17T19:23:38.300Z,-1.70
2023-01-17T19:26:07.617Z,-1.67
2023-01-17T19:28:36.596Z,-1.64
2023-01-17T19:31:12.187Z,-1.54
2023-01-17T19:33:39.299Z,-1.57
2023-01-17T19:36:08.429Z,-1.54
2023-01-17T19:38:36.068Z,-1.71
2023-01-17T19:41:16.143Z,-1.50
2023-01-17T19:43:42.264Z,-1.64
2023-01-17T19:46:09.515Z,-1.67
2023-01-17T19:48:36.981Z,-1.74
2023-01-17T19:51:09.008Z,-1.65
2023-01-17T19:53:36.713Z,-1.54
2023-01-17T19:56:13.973Z,-1.48
2023-01-17T19:58:40.321Z,-1.56
2023-01-17T20:01:18.316Z,-1.58
2023-01-17T20:03:45.496Z,-1.61
2023-01-17T20:06:14.118Z,-1.55
2023-01-17T20:08:42.787Z,-1.49
2023-01-17T20:11:20.895Z,-1.48
2023-01-17T20:13:48.361Z,-1.44
2023-01-17T20:16:16.302Z,-1.54
2023-01-17T20:18:42.875Z,-1.57
2023-01-17T20:21:16.632Z,-1.66
2023-01-17T20:23:46.271Z,-1.75
2023-01-17T20:26:14.838Z,-1.63
2023-01-17T20:28:43.119Z,-1.62
2023-01-17T20:31:12.134Z,-1.64
2023-01-17T20:33:43.221Z,-1.74
2023-01-17T20:36:11.683Z,-1.55
2023-01-17T20:38:44.703Z,-1.66
2023-01-17T20:41:14.588Z,-1.64
2023-01-17T20:43:42.279Z,-1.63
2023-01-17T20:46:09.241Z,-1.68
2023-01-17T20:48:35.624Z,-1.78
2023-01-17T20:51:06.831Z,-1.85
2023-01-17T20:53:34.293Z,-1.74
2023-01-17T20:56:00.240Z,-1.82
2023-01-17T20:58:26.111Z,-2.00
2023-01-17T21:00:54.599Z,-2.12
2023-01-17T21:03:20.820Z,-1.94
2023-01-17T21:05:46.767Z,-1.90
2023-01-17T21:08:14.522Z,-1.95
2023-01-17T21:10:49.711Z,-1.96
2023-01-17T21:13:15.613Z,-2.08
2023-01-17T21:15:42.979Z,-2.02
2023-01-17T21:18:09.314Z,-1.97
2023-01-17T21:20:35.915Z,-2.11
2023-01-17T21:23:01.789Z,-2.04
2023-01-17T21:25:27.707Z,-1.93
2023-01-17T21:27:53.673Z,-2.02
2023-01-17T21:30:19.655Z,-1.96
2023-01-17T21:32:45.484Z,-2.07
2023-01-17T21:35:11.428Z,-2.01
2023-01-17T21:37:37.617Z,-2.06
2023-01-17T21:40:05.341Z,-2.11
2023-01-17T21:42:31.396Z,-2.08
2023-01-17T21:44:57.546Z,-2.12
2023-01-17T21:47:23.513Z,-2.09
2023-01-17T21:49:49.520Z,-2.04
2023-01-17T21:52:17.977Z,-2.11
2023-01-17T21:55:02.803Z,-2.35
2023-01-17T21:57:47.213Z,-2.33
2023-01-17T22:00:13.864Z,-2.25
2023-01-17T22:02:40.349Z,-2.23
2023-01-17T22:05:07.564Z,-2.20
2023-01-17T22:07:33.680Z,-2.32
2023-01-17T22:10:00.060Z,-2.37
2023-01-17T22:12:26.110Z,-2.24
2023-01-17T22:14:52.828Z,-2.45
2023-01-17T22:17:20.302Z,-2.38
2023-01-17T22:19:46.332Z,-2.48
2023-01-17T22:22:12.728Z,-2.45
2023-01-17T22:24:39.829Z,-2.35
2023-01-17T22:27:09.173Z,-2.20
2023-01-17T22:29:38.728Z,-2.17
2023-01-17T22:32:04.666Z,-2.11
2023-01-17T22:34:30.611Z,-2.09
2023-01-17T22:36:56.429Z,-2.02
2023-01-17T22:39:22.301Z,-2.14
2023-01-17T22:41:48.309Z,-2.27
2023-01-17T22:44:14.226Z,-2.39
2023-01-17T22:46:40.815Z,-2.41
2023-01-17T22:49:07.725Z,-2.35
2023-01-17T22:51:34.375Z,-2.29
2023-01-17T22:54:00.719Z,-2.34
2023-01-17T22:56:32.107Z,-2.32
2023-01-17T22:58:59.972Z,-2.33
2023-01-17T23:01:28.927Z,-2.24
2023-01-17T23:03:59.749Z,-2.32
2023-01-17T23:06:29.566Z,-2.37
2023-01-17T23:08:57.503Z,-2.36
2023-01-17T23:11:45.435Z,-2.44
2023-01-17T23:14:20.454Z,-2.51
2023-01-17T23:17:16.387Z,-2.53
2023-01-17T23:19:43.376Z,-2.62
2023-01-17T23:22:15.509Z,-2.61
2023-01-17T23:24:58.953Z,-2.60
2023-01-17T23:27:51.118Z,-2.70
2023-01-17T23:30:25.368Z,-2.74
2023-01-17T23:32:53.363Z,-2.64
2023-01-17T23:35:22.076Z,-2.65
2023-01-17T23:38:06.975Z,-2.68
2023-01-17T23:40:34.502Z,-2.64
2023-01-17T23:43:19.189Z,-2.79
2023-01-17T23:45:45.661Z,-2.71
2023-01-17T23:48:11.932Z,-2.71
2023-01-17T23:50:40.430Z,-2.65
2023-01-17T23:53:06.956Z,-2.71
2023-01-17T23:55:40.119Z,-2.81
2023-01-17T23:58:07.872Z,-2.87
